Time;durP1;ratioP1;P1;durP2;ratioP2;P2;SDS_P1;SDS_P2;PMS_P1;PMS_P2;Temp;Humidity;BMP_temperature;BMP_pressure;BME280_temperature;BME280_humidity;BME280_pressure;Samples;Min_cycle;Max_cycle;Signal;HPM_P1;HPM_P2
2022/12/08 00:01:18;;;;;;;0.80;0.80;;;;;;;;;;6210093;23;20155;-74
2022/12/08 00:03:45;;;;;;;0.80;0.80;;;;;;;;;;6208832;22;20618;-74
2022/12/08 00:09:20;;;;;;;0.80;0.80;;;;;;;;;;6209620;23;20193;-74
2022/12/08 00:11:47;;;;;;;0.80;0.80;;;;;;;;;;6209883;23;20210;-74
2022/12/08 00:14:13;;;;;;;0.70;0.70;;;;;;;;;;6209013;22;20176;-74
2022/12/08 00:16:39;;;;;;;0.80;0.80;;;;;;;;;;6209241;23;20540;-74
2022/12/08 00:19:05;;;;;;;1.00;1.00;;;;;;;;;;6209660;23;20147;-77
2022/12/08 00:21:31;;;;;;;0.90;0.90;;;;;;;;;;6209695;23;20601;-74
2022/12/08 00:23:56;;;;;;;0.87;0.87;;;;;;;;;;6208736;22;20175;-75
2022/12/08 00:26:23;;;;;;;0.90;0.90;;;;;;;;;;6209139;23;20221;-76
2022/12/08 00:28:49;;;;;;;0.90;0.90;;;;;;;;;;6209565;23;20936;-75
2022/12/08 00:31:15;;;;;;;1.00;1.00;;;;;;;;;;6209115;23;20657;-76
2022/12/08 00:33:41;;;;;;;0.93;0.93;;;;;;;;;;6208845;22;20175;-76
2022/12/08 00:36:07;;;;;;;0.90;0.90;;;;;;;;;;6209792;23;20160;-76
2022/12/08 00:38:34;;;;;;;0.90;0.90;;;;;;;;;;6209659;23;20158;-76
2022/12/08 00:41:00;;;;;;;0.90;0.90;;;;;;;;;;6209505;23;20226;-74
2022/12/08 00:43:26;;;;;;;0.80;0.80;;;;;;;;;;6208355;22;20264;-75
2022/12/08 00:45:51;;;;;;;0.80;0.80;;;;;;;;;;6209481;23;20185;-75
2022/12/08 00:48:17;;;;;;;0.80;0.80;;;;;;;;;;6209425;23;20589;-75
2022/12/08 00:50:43;;;;;;;0.90;0.90;;;;;;;;;;6209401;23;20270;-75
2022/12/08 00:53:09;;;;;;;0.87;0.87;;;;;;;;;;6209351;22;20195;-75
2022/12/08 00:55:35;;;;;;;0.90;0.90;;;;;;;;;;6209379;23;20162;-74
2022/12/08 00:58:01;;;;;;;0.80;0.80;;;;;;;;;;6210178;23;20147;-75
2022/12/08 01:00:27;;;;;;;1.10;1.10;;;;;;;;;;6209494;23;20155;-75
2022/12/08 01:02:53;;;;;;;0.87;0.87;;;;;;;;;;6209313;22;20205;-75
2022/12/08 01:05:19;;;;;;;0.90;0.90;;;;;;;;;;6209517;23;20537;-74
2022/12/08 01:07:47;;;;;;;0.90;0.90;;;;;;;;;;6210109;23;20147;-75
2022/12/08 01:10:13;;;;;;;0.90;0.90;;;;;;;;;;6210000;23;20198;-73
2022/12/08 01:12:39;;;;;;;0.90;0.90;;;;;;;;;;6208822;22;20179;-74
2022/12/08 01:15:05;;;;;;;1.00;1.00;;;;;;;;;;6209908;23;20186;-75
2022/12/08 01:17:32;;;;;;;0.90;0.90;;;;;;;;;;6209439;23;20457;-75
2022/12/08 01:19:58;;;;;;;0.97;0.97;;;;;;;;;;6209703;23;20155;-74
2022/12/08 01:22:24;;;;;;;0.90;0.90;;;;;;;;;;6209176;22;20147;-75
2022/12/08 01:24:50;;;;;;;1.00;1.00;;;;;;;;;;6209367;23;20155;-74
2022/12/08 01:27:16;;;;;;;0.90;0.90;;;;;;;;;;6209835;23;20273;-75
2022/12/08 01:29:42;;;;;;;0.80;0.80;;;;;;;;;;6209582;23;20618;-74
2022/12/08 01:32:08;;;;;;;0.70;0.70;;;;;;;;;;6208926;23;20256;-75
2022/12/08 01:34:34;;;;;;;1.00;1.00;;;;;;;;;;6209228;22;20549;-74
2022/12/08 01:37:00;;;;;;;0.90;0.90;;;;;;;;;;6209718;23;20171;-74
2022/12/08 01:39:26;;;;;;;0.90;0.90;;;;;;;;;;6209711;23;20201;-74
2022/12/08 01:41:52;;;;;;;1.00;1.00;;;;;;;;;;6209492;23;20167;-75
2022/12/08 01:44:18;;;;;;;0.90;0.90;;;;;;;;;;6209200;22;20263;-74
2022/12/08 01:46:47;;;;;;;0.90;0.90;;;;;;;;;;6209569;23;20537;-75
2022/12/08 01:49:13;;;;;;;0.80;0.80;;;;;;;;;;6209988;23;20147;-74
2022/12/08 01:51:45;;;;;;;0.90;0.90;;;;;;;;;;6209628;23;20187;-75
2022/12/08 01:54:12;;;;;;;0.90;0.90;;;;;;;;;;6209330;22;20179;-74
2022/12/08 01:56:42;;;;;;;0.93;0.93;;;;;;;;;;6209380;23;20159;-74
2022/12/08 01:59:09;;;;;;;0.80;0.80;;;;;;;;;;6209732;23;20167;-75
2022/12/08 02:01:35;;;;;;;0.80;0.80;;;;;;;;;;6209262;23;20155;-75
2022/12/08 02:04:03;;;;;;;0.80;0.80;;;;;;;;;;6208677;22;20210;-75
2022/12/08 02:06:31;;;;;;;0.80;0.80;;;;;;;;;;6209839;23;20182;-75
2022/12/08 02:08:58;;;;;;;0.90;0.90;;;;;;;;;;6209663;23;20151;-76
2022/12/08 02:11:24;;;;;;;0.90;0.90;;;;;;;;;;6209597;23;20183;-75
2022/12/08 02:13:50;;;;;;;0.90;0.90;;;;;;;;;;6208358;22;20176;-75
2022/12/08 02:16:23;;;;;;;0.83;0.83;;;;;;;;;;6209607;23;20159;-75
2022/12/08 02:18:54;;;;;;;0.90;0.90;;;;;;;;;;6209584;23;20209;-74
2022/12/08 02:21:35;;;;;;;0.90;0.90;;;;;;;;;;6209705;23;20147;-74
2022/12/08 02:24:01;;;;;;;0.80;0.80;;;;;;;;;;6208692;22;20175;-74
2022/12/08 02:26:46;;;;;;;0.80;0.80;;;;;;;;;;6209558;23;20161;-74
2022/12/08 02:29:12;;;;;;;0.90;0.90;;;;;;;;;;6209028;23;20151;-74
2022/12/08 02:31:41;;;;;;;0.97;0.97;;;;;;;;;;6209315;23;20270;-74
2022/12/08 02:34:19;;;;;;;0.90;0.90;;;;;;;;;;6208369;22;20267;-74
2022/12/08 02:36:48;;;;;;;0.90;0.90;;;;;;;;;;6208977;23;20155;-74
2022/12/08 02:39:17;;;;;;;0.80;0.80;;;;;;;;;;6209345;23;20250;-74
2022/12/08 02:41:56;;;;;;;0.90;0.90;;;;;;;;;;6209218;23;20150;-76
2022/12/08 02:44:26;;;;;;;0.90;0.90;;;;;;;;;;6209192;22;20317;-77
2022/12/08 02:46:55;;;;;;;0.80;0.80;;;;;;;;;;6209366;23;20167;-76
2022/12/08 02:49:21;;;;;;;0.90;0.90;;;;;;;;;;6209411;23;20178;-74
2022/12/08 02:51:47;;;;;;;0.93;0.93;;;;;;;;;;6209332;23;20187;-76
2022/12/08 02:54:13;;;;;;;1.00;1.00;;;;;;;;;;6208805;22;20167;-76
2022/12/08 02:56:47;;;;;;;0.90;0.90;;;;;;;;;;6209072;23;20190;-76
2022/12/08 02:59:12;;;;;;;0.90;0.90;;;;;;;;;;6209497;23;20446;-74
2022/12/08 03:02:11;;;;;;;0.90;0.90;;;;;;;;;;6209068;23;20601;-74
2022/12/08 03:04:46;;;;;;;0.90;0.90;;;;;;;;;;6226182;23;20175;-74
2022/12/08 03:07:24;;;;;;;0.80;0.80;;;;;;;;;;6209461;23;20234;-76
2022/12/08 03:09:53;;;;;;;0.90;0.90;;;;;;;;;;6209389;23;20228;-75
2022/12/08 03:12:30;;;;;;;0.90;0.90;;;;;;;;;;6208740;22;20216;-74
2022/12/08 03:14:58;;;;;;;0.90;0.90;;;;;;;;;;6208482;23;20143;-74
2022/12/08 03:17:25;;;;;;;1.00;1.00;;;;;;;;;;6209374;23;20158;-74
2022/12/08 03:19:52;;;;;;;0.80;0.80;;;;;;;;;;6208897;23;20175;-77
2022/12/08 03:22:21;;;;;;;0.90;0.90;;;;;;;;;;6208382;22;20532;-75
2022/12/08 03:24:47;;;;;;;0.90;0.90;;;;;;;;;;6209558;23;20159;-74
2022/12/08 03:27:17;;;;;;;0.90;0.90;;;;;;;;;;6209299;23;20280;-76
2022/12/08 03:29:44;;;;;;;0.80;0.80;;;;;;;;;;6209543;23;20150;-75
2022/12/08 03:32:18;;;;;;;0.90;0.90;;;;;;;;;;6208714;23;20187;-75
2022/12/08 03:34:46;;;;;;;1.00;1.00;;;;;;;;;;6209474;23;20152;-76
2022/12/08 03:37:12;;;;;;;0.80;0.80;;;;;;;;;;6209407;23;20156;-76
2022/12/08 03:39:38;;;;;;;0.80;0.80;;;;;;;;;;6209409;23;20151;-76
2022/12/08 03:42:04;;;;;;;0.80;0.80;;;;;;;;;;6208492;23;20212;-76
2022/12/08 03:44:30;;;;;;;1.00;1.00;;;;;;;;;;6208929;22;20657;-76
2022/12/08 03:46:56;;;;;;;0.80;0.80;;;;;;;;;;6209263;23;20154;-76
2022/12/08 03:49:22;;;;;;;0.90;0.90;;;;;;;;;;6209429;23;20505;-76
2022/12/08 03:51:48;;;;;;;1.00;1.00;;;;;;;;;;6209629;23;20191;-75
2022/12/08 03:54:14;;;;;;;0.90;0.90;;;;;;;;;;6209018;22;20179;-76
2022/12/08 03:56:40;;;;;;;1.00;1.00;;;;;;;;;;6208843;23;20147;-76
2022/12/08 03:59:07;;;;;;;0.80;0.80;;;;;;;;;;6209205;23;20179;-75
2022/12/08 04:01:33;;;;;;;0.80;0.80;;;;;;;;;;6209215;23;20155;-75
2022/12/08 04:03:59;;;;;;;0.80;0.80;;;;;;;;;;6208548;22;20175;-76
2022/12/08 04:06:25;;;;;;;0.93;0.93;;;;;;;;;;6209392;23;20511;-76
2022/12/08 04:08:52;;;;;;;1.00;1.00;;;;;;;;;;6209383;23;20170;-76
2022/12/08 04:11:18;;;;;;;0.90;0.90;;;;;;;;;;6208954;23;20632;-76
2022/12/08 04:13:44;;;;;;;0.83;0.83;;;;;;;;;;6208630;22;20254;-75
2022/12/08 04:16:21;;;;;;;0.80;0.80;;;;;;;;;;6209192;23;20182;-75
2022/12/08 04:18:47;;;;;;;0.90;0.90;;;;;;;;;;6209222;23;20150;-75
2022/12/08 04:21:13;;;;;;;0.80;0.80;;;;;;;;;;6209023;23;20159;-76
2022/12/08 04:23:39;;;;;;;0.90;0.90;;;;;;;;;;6208476;22;20199;-75
2022/12/08 04:26:05;;;;;;;0.80;0.80;;;;;;;;;;6208884;23;20156;-76
2022/12/08 04:28:31;;;;;;;0.90;0.90;;;;;;;;;;6208919;23;20163;-75
2022/12/08 04:30:57;;;;;;;0.97;0.97;;;;;;;;;;6208766;23;20182;-76
2022/12/08 04:33:23;;;;;;;0.87;0.87;;;;;;;;;;6207835;22;20634;-75
2022/12/08 04:35:49;;;;;;;0.80;0.80;;;;;;;;;;6208863;23;20155;-75
2022/12/08 04:38:16;;;;;;;0.90;0.90;;;;;;;;;;6208441;23;20202;-75
2022/12/08 04:40:42;;;;;;;0.90;0.90;;;;;;;;;;6208888;23;20203;-75
2022/12/08 04:43:08;;;;;;;0.80;0.80;;;;;;;;;;6218722;22;20183;-75
2022/12/08 04:45:34;;;;;;;1.00;1.00;;;;;;;;;;6226783;23;20155;-75
2022/12/08 04:48:00;;;;;;;0.83;0.83;;;;;;;;;;6222605;23;20531;-74
2022/12/08 04:50:26;;;;;;;0.90;0.90;;;;;;;;;;6208192;23;20193;-75
2022/12/08 04:52:52;;;;;;;0.90;0.90;;;;;;;;;;6207601;22;20606;-75
2022/12/08 04:55:19;;;;;;;0.87;0.87;;;;;;;;;;6208578;23;20212;-75
2022/12/08 04:57:45;;;;;;;0.97;0.97;;;;;;;;;;6208143;23;20152;-74
2022/12/08 05:00:12;;;;;;;0.90;0.90;;;;;;;;;;6208513;23;20225;-74
2022/12/08 05:02:38;;;;;;;0.80;0.80;;;;;;;;;;6207929;22;20254;-75
2022/12/08 05:05:04;;;;;;;0.90;0.90;;;;;;;;;;6208050;23;20162;-74
2022/12/08 05:07:30;;;;;;;0.97;0.97;;;;;;;;;;6207905;23;20538;-75
2022/12/08 05:09:56;;;;;;;0.90;0.90;;;;;;;;;;6208408;23;20155;-75
2022/12/08 05:12:22;;;;;;;0.90;0.90;;;;;;;;;;6207021;22;20596;-75
2022/12/08 05:14:48;;;;;;;0.90;0.90;;;;;;;;;;6208364;23;20171;-75
2022/12/08 05:17:18;;;;;;;0.90;0.90;;;;;;;;;;6206417;23;20163;-75
2022/12/08 05:19:44;;;;;;;0.83;0.83;;;;;;;;;;6207585;23;20659;-76
2022/12/08 05:22:10;;;;;;;0.90;0.90;;;;;;;;;;6207488;23;20246;-75
2022/12/08 05:24:37;;;;;;;0.90;0.90;;;;;;;;;;6207630;22;20197;-75
2022/12/08 05:27:03;;;;;;;0.90;0.90;;;;;;;;;;6207948;23;20151;-75
2022/12/08 05:29:29;;;;;;;0.90;0.90;;;;;;;;;;6207755;23;20251;-75
2022/12/08 05:31:55;;;;;;;0.80;0.80;;;;;;;;;;6207988;23;20183;-75
2022/12/08 05:34:21;;;;;;;0.90;0.90;;;;;;;;;;6208723;22;20309;-74
2022/12/08 05:36:47;;;;;;;0.80;0.80;;;;;;;;;;6211543;23;20224;-75
2022/12/08 05:39:13;;;;;;;0.90;0.90;;;;;;;;;;6211667;23;20519;-75
2022/12/08 05:41:39;;;;;;;0.90;0.90;;;;;;;;;;6210848;23;20152;-75
2022/12/08 05:44:05;;;;;;;0.87;0.87;;;;;;;;;;6208609;22;20250;-75
2022/12/08 05:46:31;;;;;;;0.80;0.80;;;;;;;;;;6209535;23;20159;-74
2022/12/08 05:48:59;;;;;;;0.90;0.90;;;;;;;;;;6209120;23;20235;-75
2022/12/08 05:51:25;;;;;;;0.90;0.90;;;;;;;;;;6209488;23;20179;-74
2022/12/08 05:53:51;;;;;;;1.00;1.00;;;;;;;;;;6208821;22;20514;-75
2022/12/08 05:56:18;;;;;;;0.90;0.90;;;;;;;;;;6209178;23;20614;-75
2022/12/08 05:58:44;;;;;;;0.90;0.90;;;;;;;;;;6209459;23;20187;-75
2022/12/08 06:01:23;;;;;;;0.90;0.90;;;;;;;;;;6209623;23;20171;-75
2022/12/08 06:03:49;;;;;;;0.90;0.90;;;;;;;;;;6208773;22;20510;-75
2022/12/08 06:06:15;;;;;;;0.80;0.80;;;;;;;;;;6209299;23;20203;-75
2022/12/08 06:08:41;;;;;;;0.80;0.80;;;;;;;;;;6209556;23;20226;-75
2022/12/08 06:11:08;;;;;;;0.80;0.80;;;;;;;;;;6209877;23;20190;-76
2022/12/08 06:13:34;;;;;;;0.90;0.90;;;;;;;;;;6208383;22;20167;-75
2022/12/08 06:16:06;;;;;;;0.90;0.90;;;;;;;;;;6209135;23;20162;-75
2022/12/08 06:18:32;;;;;;;0.80;0.80;;;;;;;;;;6209523;23;20155;-75
2022/12/08 06:21:02;;;;;;;0.90;0.90;;;;;;;;;;6208956;23;20590;-75
2022/12/08 06:23:28;;;;;;;0.90;0.90;;;;;;;;;;6208423;22;20617;-75
2022/12/08 06:25:54;;;;;;;0.90;0.90;;;;;;;;;;6209494;23;20155;-76
2022/12/08 06:28:20;;;;;;;1.00;1.00;;;;;;;;;;6209381;23;20155;-74
2022/12/08 06:30:46;;;;;;;0.90;0.90;;;;;;;;;;6209145;23;20269;-74
2022/12/08 06:33:12;;;;;;;0.90;0.90;;;;;;;;;;6208886;22;20163;-74
2022/12/08 06:35:38;;;;;;;0.90;0.90;;;;;;;;;;6209121;23;20185;-74
2022/12/08 06:38:04;;;;;;;1.00;1.00;;;;;;;;;;6208544;23;20190;-73
2022/12/08 06:40:30;;;;;;;0.90;0.90;;;;;;;;;;6209543;23;20151;-73
2022/12/08 06:42:56;;;;;;;1.00;1.00;;;;;;;;;;6208100;22;20688;-74
2022/12/08 06:45:22;;;;;;;0.90;0.90;;;;;;;;;;6208874;23;20151;-73
2022/12/08 06:47:48;;;;;;;0.97;0.97;;;;;;;;;;6208931;23;20230;-74
2022/12/08 06:50:14;;;;;;;0.87;0.87;;;;;;;;;;6209050;23;20144;-74
2022/12/08 06:52:41;;;;;;;0.90;0.90;;;;;;;;;;6208509;22;20176;-74
2022/12/08 06:55:07;;;;;;;0.93;0.93;;;;;;;;;;6209236;23;20159;-74
2022/12/08 06:57:33;;;;;;;0.80;0.80;;;;;;;;;;6209399;23;20147;-74
2022/12/08 06:59:59;;;;;;;1.00;1.00;;;;;;;;;;6209323;23;20159;-73
2022/12/08 07:02:25;;;;;;;1.00;1.00;;;;;;;;;;6208704;22;20662;-75
2022/12/08 07:04:51;;;;;;;1.00;1.00;;;;;;;;;;6209051;23;20456;-74
2022/12/08 07:07:17;;;;;;;0.80;0.80;;;;;;;;;;6208769;23;20155;-73
2022/12/08 07:09:43;;;;;;;0.97;0.97;;;;;;;;;;6209193;23;20207;-73
2022/12/08 07:12:09;;;;;;;1.00;1.00;;;;;;;;;;6208298;23;20191;-73
2022/12/08 07:14:35;;;;;;;0.90;0.90;;;;;;;;;;6208681;22;20168;-73
2022/12/08 07:17:01;;;;;;;1.00;1.00;;;;;;;;;;6209045;23;20155;-73
2022/12/08 07:19:27;;;;;;;1.00;1.00;;;;;;;;;;6209184;23;20490;-73
2022/12/08 07:21:53;;;;;;;0.80;0.80;;;;;;;;;;6209180;23;20233;-73
2022/12/08 07:24:19;;;;;;;0.90;0.90;;;;;;;;;;6208124;22;20186;-73
2022/12/08 07:26:45;;;;;;;0.90;0.90;;;;;;;;;;6209228;23;20159;-73
2022/12/08 07:29:11;;;;;;;1.00;1.00;;;;;;;;;;6209207;23;20251;-74
2022/12/08 07:31:37;;;;;;;1.00;1.00;;;;;;;;;;6209134;23;20188;-74
2022/12/08 07:34:03;;;;;;;1.00;1.00;;;;;;;;;;6208088;22;20375;-74
2022/12/08 07:36:29;;;;;;;1.03;1.03;;;;;;;;;;6209129;23;20196;-74
2022/12/08 07:38:55;;;;;;;0.90;0.90;;;;;;;;;;6208953;23;20147;-74
2022/12/08 07:41:23;;;;;;;0.80;0.80;;;;;;;;;;6209125;23;20193;-74
2022/12/08 07:43:49;;;;;;;0.90;0.90;;;;;;;;;;6208193;22;20191;-74
2022/12/08 07:46:16;;;;;;;0.90;0.90;;;;;;;;;;6209123;23;20147;-74
2022/12/08 07:48:42;;;;;;;0.73;0.73;;;;;;;;;;6209032;23;20208;-74
2022/12/08 07:51:08;;;;;;;0.80;0.80;;;;;;;;;;6208431;23;20215;-74
2022/12/08 07:53:34;;;;;;;0.70;0.70;;;;;;;;;;6208062;22;20689;-77
2022/12/08 07:56:00;;;;;;;0.70;0.70;;;;;;;;;;6206109;23;20182;-78
2022/12/08 07:58:26;;;;;;;0.70;0.70;;;;;;;;;;6207255;23;20223;-78
2022/12/08 08:00:52;;;;;;;0.60;0.60;;;;;;;;;;6208687;23;20612;-79
2022/12/08 08:03:19;;;;;;;0.50;0.50;;;;;;;;;;6208401;22;20171;-77
2022/12/08 08:05:48;;;;;;;0.40;0.40;;;;;;;;;;6210951;23;20151;-77
2022/12/08 08:08:14;;;;;;;0.50;0.50;;;;;;;;;;6206737;23;20154;-77
2022/12/08 08:10:40;;;;;;;0.40;0.40;;;;;;;;;;6209806;23;20183;-79
2022/12/08 08:13:05;;;;;;;0.50;0.50;;;;;;;;;;6211387;22;20549;-79
2022/12/08 08:15:31;;;;;;;0.50;0.50;;;;;;;;;;6209765;23;20151;-75
2022/12/08 08:17:57;;;;;;;0.40;0.40;;;;;;;;;;6209156;23;20426;-76
2022/12/08 08:20:23;;;;;;;0.40;0.40;;;;;;;;;;6208572;23;20167;-76
2022/12/08 08:22:50;;;;;;;0.50;0.50;;;;;;;;;;6208317;22;20186;-76
2022/12/08 08:25:17;;;;;;;0.50;0.50;;;;;;;;;;6208991;23;20159;-76
2022/12/08 08:27:43;;;;;;;0.50;0.50;;;;;;;;;;6208117;23;20681;-76
2022/12/08 08:30:10;;;;;;;0.50;0.50;;;;;;;;;;6208392;23;20205;-76
2022/12/08 08:32:36;;;;;;;0.50;0.50;;;;;;;;;;6208178;22;20175;-76
2022/12/08 08:35:03;;;;;;;0.43;0.43;;;;;;;;;;6208557;23;20230;-76
2022/12/08 08:37:29;;;;;;;0.57;0.57;;;;;;;;;;6208447;23;20162;-76
2022/12/08 08:39:55;;;;;;;0.40;0.40;;;;;;;;;;6208785;23;20155;-76
2022/12/08 08:42:21;;;;;;;0.50;0.50;;;;;;;;;;6207428;22;20675;-76
2022/12/08 08:44:47;;;;;;;0.40;0.40;;;;;;;;;;6208025;23;20151;-76
2022/12/08 08:47:13;;;;;;;0.40;0.40;;;;;;;;;;6207975;23;20516;-76
2022/12/08 08:49:39;;;;;;;0.50;0.50;;;;;;;;;;6208658;23;20151;-77
2022/12/08 08:52:06;;;;;;;0.60;0.60;;;;;;;;;;6208203;23;20179;-76
2022/12/08 08:54:32;;;;;;;0.40;0.40;;;;;;;;;;6208784;22;20258;-77
2022/12/08 08:56:59;;;;;;;0.40;0.40;;;;;;;;;;6208223;23;20152;-77
2022/12/08 08:59:25;;;;;;;0.40;0.40;;;;;;;;;;6208399;23;20155;-77
2022/12/08 09:01:51;;;;;;;0.40;0.40;;;;;;;;;;6208459;23;20156;-77
2022/12/08 09:04:17;;;;;;;0.43;0.43;;;;;;;;;;6207568;22;20182;-77
2022/12/08 09:06:44;;;;;;;0.50;0.50;;;;;;;;;;6208503;23;20224;-77
2022/12/08 09:09:10;;;;;;;0.60;0.60;;;;;;;;;;6208305;23;20159;-76
2022/12/08 09:11:36;;;;;;;0.33;0.33;;;;;;;;;;6207471;23;20228;-75
2022/12/08 09:14:02;;;;;;;0.30;0.30;;;;;;;;;;6208087;22;20171;-77
2022/12/08 09:16:28;;;;;;;0.40;0.40;;;;;;;;;;6209466;23;20171;-77
2022/12/08 09:18:54;;;;;;;0.30;0.30;;;;;;;;;;6209626;23;20155;-78
2022/12/08 09:21:26;;;;;;;0.40;0.40;;;;;;;;;;6209549;23;20162;-78
2022/12/08 09:23:53;;;;;;;0.40;0.40;;;;;;;;;;6212289;22;20175;-78
2022/12/08 09:26:22;;;;;;;0.30;0.30;;;;;;;;;;6212499;23;20161;-79
2022/12/08 09:28:48;;;;;;;0.40;0.40;;;;;;;;;;6210701;23;20466;-78
2022/12/08 09:31:15;;;;;;;0.40;0.40;;;;;;;;;;6212246;23;20190;-77
2022/12/08 09:33:42;;;;;;;0.40;0.40;;;;;;;;;;6210390;22;20285;-77
2022/12/08 09:36:08;;;;;;;0.40;0.40;;;;;;;;;;6212602;23;20152;-78
2022/12/08 09:38:34;;;;;;;0.30;0.30;;;;;;;;;;6208319;23;20151;-77
2022/12/08 09:41:02;;;;;;;0.40;0.40;;;;;;;;;;6207089;23;20220;-77
2022/12/08 09:43:31;;;;;;;0.40;0.40;;;;;;;;;;6209306;22;20270;-77
2022/12/08 09:45:58;;;;;;;0.30;0.30;;;;;;;;;;6209679;23;20574;-77
2022/12/08 09:48:28;;;;;;;0.40;0.40;;;;;;;;;;6210177;23;20152;-77
2022/12/08 09:50:55;;;;;;;0.47;0.47;;;;;;;;;;6211138;23;20186;-77
2022/12/08 09:53:26;;;;;;;0.37;0.37;;;;;;;;;;6209238;22;20494;-77
2022/12/08 09:55:55;;;;;;;0.30;0.30;;;;;;;;;;6209797;23;20174;-77
2022/12/08 09:58:27;;;;;;;0.40;0.40;;;;;;;;;;6209607;23;20574;-76
2022/12/08 10:00:53;;;;;;;0.40;0.40;;;;;;;;;;6209566;23;20470;-77
2022/12/08 10:03:20;;;;;;;0.40;0.40;;;;;;;;;;6208582;22;20171;-77
2022/12/08 10:06:15;;;;;;;0.40;0.40;;;;;;;;;;6209862;23;20154;-77
2022/12/08 10:08:51;;;;;;;0.50;0.50;;;;;;;;;;6216051;23;20151;-78
2022/12/08 10:11:21;;;;;;;0.40;0.40;;;;;;;;;;6210306;23;20617;-77
2022/12/08 10:13:54;;;;;;;0.37;0.37;;;;;;;;;;6209516;22;20179;-76
2022/12/08 10:16:20;;;;;;;0.40;0.40;;;;;;;;;;6210446;23;20143;-77
2022/12/08 10:18:51;;;;;;;0.40;0.40;;;;;;;;;;6209629;23;20590;-77
2022/12/08 10:21:21;;;;;;;0.40;0.40;;;;;;;;;;6211271;23;20135;-77
2022/12/08 10:23:50;;;;;;;0.30;0.30;;;;;;;;;;6208814;22;20240;-77
2022/12/08 10:26:17;;;;;;;0.40;0.40;;;;;;;;;;6209436;23;20204;-78
2022/12/08 10:28:44;;;;;;;0.40;0.40;;;;;;;;;;6209558;23;20151;-76
2022/12/08 10:31:17;;;;;;;0.40;0.40;;;;;;;;;;6209333;23;20561;-75
2022/12/08 10:33:43;;;;;;;0.50;0.50;;;;;;;;;;6208242;22;20171;-76
2022/12/08 10:36:09;;;;;;;0.50;0.50;;;;;;;;;;6207254;23;20622;-76
2022/12/08 10:38:36;;;;;;;0.47;0.47;;;;;;;;;;6209260;23;20159;-77
2022/12/08 10:41:08;;;;;;;0.50;0.50;;;;;;;;;;6209751;23;20171;-76
2022/12/08 10:43:36;;;;;;;0.50;0.50;;;;;;;;;;6208523;22;20630;-77
2022/12/08 10:46:15;;;;;;;0.50;0.50;;;;;;;;;;6209609;23;20155;-77
2022/12/08 10:48:48;;;;;;;0.50;0.50;;;;;;;;;;6208732;23;20148;-76
2022/12/08 10:51:26;;;;;;;0.50;0.50;;;;;;;;;;6209394;23;20190;-76
2022/12/08 10:53:52;;;;;;;0.50;0.50;;;;;;;;;;6208381;22;20907;-76
2022/12/08 10:56:18;;;;;;;0.50;0.50;;;;;;;;;;6209513;23;20166;-76
2022/12/08 10:58:45;;;;;;;0.50;0.50;;;;;;;;;;6209556;23;20159;-77
2022/12/08 11:01:11;;;;;;;0.53;0.53;;;;;;;;;;6209342;23;20534;-76
2022/12/08 11:03:56;;;;;;;0.43;0.43;;;;;;;;;;6208129;22;20175;-77
2022/12/08 11:06:28;;;;;;;0.50;0.50;;;;;;;;;;6209027;23;20586;-77
2022/12/08 11:08:57;;;;;;;0.50;0.50;;;;;;;;;;6209399;23;20152;-76
2022/12/08 11:11:38;;;;;;;0.70;0.70;;;;;;;;;;6209711;23;20212;-76
2022/12/08 11:14:08;;;;;;;0.80;0.80;;;;;;;;;;6209464;22;20167;-76
2022/12/08 11:16:34;;;;;;;0.60;0.60;;;;;;;;;;6209632;23;20181;-77
2022/12/08 11:19:05;;;;;;;0.70;0.70;;;;;;;;;;6208777;23;20546;-76
2022/12/08 11:21:36;;;;;;;0.70;0.70;;;;;;;;;;6209113;23;20606;-75
2022/12/08 11:24:17;;;;;;;0.60;0.60;;;;;;;;;;6208164;22;20171;-75
2022/12/08 11:26:46;;;;;;;0.70;0.70;;;;;;;;;;6209520;23;20166;-78
2022/12/08 11:29:12;;;;;;;0.80;0.80;;;;;;;;;;6212141;23;20167;-77
2022/12/08 11:31:56;;;;;;;0.70;0.70;;;;;;;;;;6210602;23;20627;-78
2022/12/08 11:34:28;;;;;;;0.70;0.70;;;;;;;;;;6210593;22;20175;-79
2022/12/08 11:36:55;;;;;;;0.80;0.80;;;;;;;;;;6210414;23;20174;-79
2022/12/08 11:39:21;;;;;;;0.50;0.50;;;;;;;;;;6211855;23;20152;-79
2022/12/08 11:41:48;;;;;;;0.70;0.70;;;;;;;;;;6210230;23;20645;-78
2022/12/08 11:44:33;;;;;;;0.70;0.70;;;;;;;;;;6210224;22;20182;-79
2022/12/08 11:47:18;;;;;;;0.80;0.80;;;;;;;;;;6210044;23;20148;-78
2022/12/08 11:49:44;;;;;;;0.77;0.77;;;;;;;;;;6210864;23;20159;-78
2022/12/08 11:52:22;;;;;;;0.70;0.70;;;;;;;;;;6209850;23;20250;-78
2022/12/08 11:54:51;;;;;;;0.70;0.70;;;;;;;;;;6206473;23;20143;-79
2022/12/08 11:57:19;;;;;;;0.70;0.70;;;;;;;;;;6208764;23;20200;-81
2022/12/08 11:59:49;;;;;;;0.70;0.70;;;;;;;;;;6210304;23;20161;-78
2022/12/08 12:02:17;;;;;;;0.80;0.80;;;;;;;;;;6210100;22;20220;-77
2022/12/08 12:04:55;;;;;;;0.80;0.80;;;;;;;;;;6208528;23;20636;-79
2022/12/08 12:07:36;;;;;;;0.70;0.70;;;;;;;;;;6209521;23;20213;-79
2022/12/08 12:10:11;;;;;;;0.50;0.50;;;;;;;;;;6210275;23;20234;-80
2022/12/08 12:13:03;;;;;;;0.60;0.60;;;;;;;;;;6211482;22;20211;-78
2022/12/08 12:15:35;;;;;;;0.50;0.50;;;;;;;;;;6214327;23;20139;-78
2022/12/08 12:18:20;;;;;;;0.50;0.50;;;;;;;;;;6215728;23;20151;-78
2022/12/08 12:20:57;;;;;;;0.50;0.50;;;;;;;;;;6215371;23;20151;-79
2022/12/08 12:23:27;;;;;;;0.47;0.47;;;;;;;;;;6217172;22;20522;-78
2022/12/08 12:25:56;;;;;;;0.50;0.50;;;;;;;;;;6214038;23;20148;-78
2022/12/08 12:28:23;;;;;;;0.40;0.40;;;;;;;;;;6210875;23;20232;-78
2022/12/08 12:30:55;;;;;;;0.50;0.50;;;;;;;;;;6209412;23;20190;-77
2022/12/08 12:33:22;;;;;;;0.50;0.50;;;;;;;;;;6209278;22;20175;-78
2022/12/08 12:35:48;;;;;;;0.70;0.70;;;;;;;;;;6209320;23;20621;-78
2022/12/08 12:41:08;;;;;;;0.47;0.47;;;;;;;;;;6209407;23;20166;-78
2022/12/08 12:43:35;;;;;;;0.60;0.60;;;;;;;;;;6209097;22;20167;-77
2022/12/08 12:46:24;;;;;;;0.50;0.50;;;;;;;;;;6210781;23;20158;-77
2022/12/08 12:48:51;;;;;;;0.50;0.50;;;;;;;;;;6225031;23;20190;-77
2022/12/08 12:51:35;;;;;;;0.60;0.60;;;;;;;;;;6210881;23;20183;-78
2022/12/08 12:54:20;;;;;;;0.50;0.50;;;;;;;;;;6210411;22;20469;-78
2022/12/08 12:56:56;;;;;;;0.50;0.50;;;;;;;;;;6210927;23;20162;-78
2022/12/08 12:59:28;;;;;;;0.50;0.50;;;;;;;;;;6210890;23;20231;-77
2022/12/08 13:01:55;;;;;;;0.60;0.60;;;;;;;;;;6210183;23;20187;-78
2022/12/08 13:04:29;;;;;;;0.60;0.60;;;;;;;;;;6210598;22;20178;-77
2022/12/08 13:06:55;;;;;;;0.50;0.50;;;;;;;;;;6210852;23;20240;-78
2022/12/08 13:09:22;;;;;;;0.60;0.60;;;;;;;;;;6210761;23;20597;-79
2022/12/08 13:11:52;;;;;;;0.50;0.50;;;;;;;;;;6210288;23;20183;-78
2022/12/08 13:14:28;;;;;;;0.60;0.60;;;;;;;;;;6210295;22;20175;-80
2022/12/08 13:16:55;;;;;;;0.50;0.50;;;;;;;;;;6210678;23;20226;-77
2022/12/08 13:19:21;;;;;;;0.40;0.40;;;;;;;;;;6210824;23;20148;-78
2022/12/08 13:21:47;;;;;;;0.50;0.50;;;;;;;;;;6210788;23;20159;-78
2022/12/08 13:24:16;;;;;;;0.50;0.50;;;;;;;;;;6210164;22;20180;-79
2022/12/08 13:26:43;;;;;;;0.60;0.60;;;;;;;;;;6210650;23;20267;-77
2022/12/08 13:29:25;;;;;;;0.60;0.60;;;;;;;;;;6210757;23;20230;-77
2022/12/08 13:31:51;;;;;;;0.70;0.70;;;;;;;;;;6210015;23;20240;-77
2022/12/08 13:34:32;;;;;;;0.60;0.60;;;;;;;;;;6210563;22;20167;-78
2022/12/08 13:37:10;;;;;;;0.50;0.50;;;;;;;;;;6210080;23;20538;-77
2022/12/08 13:39:39;;;;;;;0.70;0.70;;;;;;;;;;6212318;23;20532;-76
2022/12/08 13:42:07;;;;;;;0.50;0.50;;;;;;;;;;6210893;23;20655;-77
2022/12/08 13:44:39;;;;;;;0.60;0.60;;;;;;;;;;6211320;22;20175;-77
2022/12/08 13:47:09;;;;;;;0.70;0.70;;;;;;;;;;6212037;23;20151;-79
2022/12/08 13:49:38;;;;;;;0.40;0.40;;;;;;;;;;6220523;23;20151;-79
2022/12/08 13:52:06;;;;;;;0.63;0.63;;;;;;;;;;6215266;23;20183;-79
2022/12/08 13:54:34;;;;;;;0.60;0.60;;;;;;;;;;6211963;22;20190;-77
2022/12/08 13:57:01;;;;;;;0.60;0.60;;;;;;;;;;6216975;23;20234;-76
2022/12/08 13:59:29;;;;;;;0.67;0.67;;;;;;;;;;6217235;23;20212;-78
2022/12/08 14:01:57;;;;;;;0.70;0.70;;;;;;;;;;6217844;23;20173;-79
2022/12/08 14:04:23;;;;;;;0.70;0.70;;;;;;;;;;6219248;22;20175;-76
2022/12/08 14:06:51;;;;;;;0.70;0.70;;;;;;;;;;6217973;23;20497;-77
2022/12/08 14:09:18;;;;;;;0.70;0.70;;;;;;;;;;6216498;23;20158;-77
2022/12/08 14:11:52;;;;;;;0.60;0.60;;;;;;;;;;6216100;23;20205;-77
2022/12/08 14:14:20;;;;;;;0.73;0.73;;;;;;;;;;6213137;22;20179;-76
2022/12/08 14:16:53;;;;;;;0.70;0.70;;;;;;;;;;6213092;23;20231;-74
2022/12/08 14:19:20;;;;;;;0.60;0.60;;;;;;;;;;6210202;23;20151;-76
2022/12/08 14:21:57;;;;;;;0.70;0.70;;;;;;;;;;6209608;23;20152;-76
2022/12/08 14:24:24;;;;;;;0.70;0.70;;;;;;;;;;6209709;22;20198;-76
2022/12/08 14:26:52;;;;;;;0.70;0.70;;;;;;;;;;6210111;23;20155;-76
2022/12/08 14:29:28;;;;;;;0.80;0.80;;;;;;;;;;6209946;23;20163;-76
2022/12/08 14:31:54;;;;;;;0.70;0.70;;;;;;;;;;6210052;23;20183;-76
2022/12/08 14:34:20;;;;;;;0.70;0.70;;;;;;;;;;6209347;22;20182;-75
2022/12/08 14:36:46;;;;;;;0.83;0.83;;;;;;;;;;6209446;23;20155;-76
2022/12/08 14:39:12;;;;;;;0.80;0.80;;;;;;;;;;6213821;23;20170;-75
2022/12/08 14:41:38;;;;;;;0.87;0.87;;;;;;;;;;6212546;23;20594;-75
2022/12/08 14:44:13;;;;;;;0.80;0.80;;;;;;;;;;6210787;22;20167;-76
2022/12/08 14:46:59;;;;;;;0.80;0.80;;;;;;;;;;6211772;23;20230;-75
2022/12/08 14:49:33;;;;;;;0.80;0.80;;;;;;;;;;6210765;23;20170;-77
2022/12/08 14:52:00;;;;;;;0.80;0.80;;;;;;;;;;6211158;23;20198;-78
2022/12/08 14:54:28;;;;;;;0.80;0.80;;;;;;;;;;6212381;22;20194;-76
2022/12/08 14:56:55;;;;;;;0.83;0.83;;;;;;;;;;6210438;23;20155;-76